Sun Globe — 9HA2857 — position and weather

sailwx.info

Track history (hours):
 
Tides and Currents Weather Stations Pressure Air Temp Water Temp Dewpoint Dewpoint Depression Visibility Wind Speed Wind Dir Waves Ship Positions

Sun Globe

Last reported at 2015-Jun-03 16:31 UTC. Time now 2015-Jul-04 03:25 UTC.
Position N 27°12' W 014°07'.
Warning: this ship's position is 30 days out of date.

Length 190 m; draft 10.3 m.

Type: Cargo ship. MMSI: 256415000.

Date/timePositionNaut miles runAvg speedWind from/ knotsBaromVisibWave heightAir tempDewpointWater temp
2015-Jun-03 16:31N 27°12' W 014°07'1313.0
2015-Jun-03 15:32N 27°23' W 013°60'1413.4
2015-Jun-03 14:31N 27°35' W 013°52'1313.5
2015-Jun-03 13:33N 27°46' W 013°45'1313.3
2015-Jun-03 12:33N 27°58' W 013°38'1313.2
2015-Jun-03 11:33N 28°09' W 013°31'2713.3
2015-Jun-03 09:31N 28°33' W 013°16'47513.2
2015-Jun-01 21:27N 34°43' W 007°27'1213.5
2015-Jun-01 20:33N 34°52' W 007°17'1813.6
2015-Jun-01 19:14N 35°05' W 007°01'1613.4
2015-Jun-01 18:04N 35°16' W 006°48'2013.4
2015-Jun-01 16:33N 35°32' W 006°32'5811.6
2015-Jun-01 11:33N 35°59' W 005°29'9 9.1
2015-Jun-01 10:33N 36°06' W 005°22'0 0.3
2015-Jun-01 09:28N 36°06' W 005°21'0 0.0
2015-Jun-01 08:31N 36°06' W 005°21'0 0.1
2015-Jun-01 07:31N 36°06' W 005°22'103 6.8
2015-May-31 16:31N 36°17' W 003°15'1313.4
2015-May-31 15:33N 36°19' W 002°59'1413.6
2015-May-31 14:33N 36°22' W 002°43'1413.9
2015-May-31 13:33N 36°24' W 002°26'1413.7
2015-May-31 12:33N 36°26' W 002°09'1313.3
2015-May-31 11:33N 36°28' W 001°53'1313.2
2015-May-31 10:33N 36°31' W 001°36'1313.2
2015-May-31 09:33N 36°33' W 001°20'1913.5
2015-May-31 08:08N 36°36' W 000°57'813.6
2015-May-31 07:33N 36°37' W 000°47'1313.3
2015-May-31 06:33N 36°39' W 000°30'1313.5
2015-May-31 05:33N 36°42' W 000°14'1413.5
2015-May-31 04:34N 36°44' E 000°03'1413.4
2015-May-31 03:33N 36°46' E 000°19'1313.2
2015-May-31 02:33N 36°49' E 000°35'1313.2
2015-May-31 01:33N 36°51' E 000°52'1413.2
2015-May-31 00:31N 36°52' E 001°09'1313.3
2015-May-30 23:33N 36°55' E 001°25'1313.3
2015-May-30 22:32N 36°57' E 001°41'1313.4
2015-May-30 21:33N 36°59' E 001°57'1313.1
2015-May-30 20:33N 37°01' E 002°14'1313.5
2015-May-30 19:33N 37°03' E 002°30'2813.2
2015-May-30 17:26N 37°08' E 003°05'25613.3
2015-May-29 22:08N 37°40' E 008°24'2514.2
2015-May-29 20:21N 37°43' E 008°56'1613.4
2015-May-29 19:11N 37°42' E 009°16'813.5
2015-May-29 18:33N 37°42' E 009°26'1413.5
2015-May-29 17:33N 37°41' E 009°44'1413.4
2015-May-29 16:33N 37°40' E 010°01'1313.0
2015-May-29 15:32N 37°39' E 010°17'1313.0
2015-May-29 14:32N 37°37' E 010°33'1313.2
2015-May-29 13:33N 37°34' E 010°49'1312.9
2015-May-29 12:33N 37°30' E 011°05'1313.2
2015-May-29 11:33N 37°24' E 011°20'1313.4
2015-May-29 10:33N 37°19' E 011°35'1313.3
2015-May-29 09:33N 37°13' E 011°50'1513.6
2015-May-29 08:27N 37°07' E 012°07'1213.1
2015-May-29 07:33N 37°02' E 012°21'1312.9
2015-May-29 06:33N 36°57' E 012°36'4013.4
2015-May-29 03:33N 36°45' E 013°23'1313.2
2015-May-29 02:33N 36°40' E 013°39'1313.1
2015-May-29 01:33N 36°36' E 013°54'1313.4
2015-May-29 00:33N 36°32' E 014°10'1313.4
2015-May-28 23:33N 36°29' E 014°26'1313.0
2015-May-28 22:33N 36°27' E 014°42'44412.3
2015-May-27 10:33N 37°02' E 023°54'3213.8
2015-May-27 08:15N 37°27' E 024°19'1413.7
2015-May-27 07:12N 37°39' E 024°30'10411.4
2015-May-26 22:04N 39°23' E 024°30'711.8
2015-May-26 21:30N 39°28' E 024°24'1212.3
2015-May-26 20:30N 39°37' E 024°14'1212.1
2015-May-26 19:32N 39°42' E 024°00'  
Track history (hours):
 
Tides and Currents Weather Stations Pressure Air Temp Water Temp Dewpoint Dewpoint Depression Visibility Wind Speed Wind Dir Waves Ship Positions

Sun Globe

Last reported at 2015-Jun-03 16:31 UTC. Time now 2015-Jul-04 03:25 UTC.
Position N 27°12' W 014°07'.
Warning: this ship's position is 30 days out of date.

Length 190 m; draft 10.3 m.

Type: Cargo ship. MMSI: 256415000.

Date/timePositionNaut miles runAvg speedWind from/ knotsBaromVisibWave heightAir tempDewpointWater temp
2015-Jun-03 16:31N 27°12' W 014°07'1313.0
2015-Jun-03 15:32N 27°23' W 013°60'1413.4
2015-Jun-03 14:31N 27°35' W 013°52'1313.5
2015-Jun-03 13:33N 27°46' W 013°45'1313.3
2015-Jun-03 12:33N 27°58' W 013°38'1313.2
2015-Jun-03 11:33N 28°09' W 013°31'2713.3
2015-Jun-03 09:31N 28°33' W 013°16'47513.2
2015-Jun-01 21:27N 34°43' W 007°27'1213.5
2015-Jun-01 20:33N 34°52' W 007°17'1813.6
2015-Jun-01 19:14N 35°05' W 007°01'1613.4
2015-Jun-01 18:04N 35°16' W 006°48'2013.4
2015-Jun-01 16:33N 35°32' W 006°32'5811.6
2015-Jun-01 11:33N 35°59' W 005°29'9 9.1
2015-Jun-01 10:33N 36°06' W 005°22'0 0.3
2015-Jun-01 09:28N 36°06' W 005°21'0 0.0
2015-Jun-01 08:31N 36°06' W 005°21'0 0.1
2015-Jun-01 07:31N 36°06' W 005°22'103 6.8
2015-May-31 16:31N 36°17' W 003°15'1313.4
2015-May-31 15:33N 36°19' W 002°59'1413.6
2015-May-31 14:33N 36°22' W 002°43'1413.9
2015-May-31 13:33N 36°24' W 002°26'1413.7
2015-May-31 12:33N 36°26' W 002°09'1313.3
2015-May-31 11:33N 36°28' W 001°53'1313.2
2015-May-31 10:33N 36°31' W 001°36'1313.2
2015-May-31 09:33N 36°33' W 001°20'1913.5
2015-May-31 08:08N 36°36' W 000°57'813.6
2015-May-31 07:33N 36°37' W 000°47'1313.3
2015-May-31 06:33N 36°39' W 000°30'1313.5
2015-May-31 05:33N 36°42' W 000°14'1413.5
2015-May-31 04:34N 36°44' E 000°03'1413.4
2015-May-31 03:33N 36°46' E 000°19'1313.2
2015-May-31 02:33N 36°49' E 000°35'1313.2
2015-May-31 01:33N 36°51' E 000°52'1413.2
2015-May-31 00:31N 36°52' E 001°09'1313.3
2015-May-30 23:33N 36°55' E 001°25'1313.3
2015-May-30 22:32N 36°57' E 001°41'1313.4
2015-May-30 21:33N 36°59' E 001°57'1313.1
2015-May-30 20:33N 37°01' E 002°14'1313.5
2015-May-30 19:33N 37°03' E 002°30'2813.2
2015-May-30 17:26N 37°08' E 003°05'25613.3
2015-May-29 22:08N 37°40' E 008°24'2514.2
2015-May-29 20:21N 37°43' E 008°56'1613.4
2015-May-29 19:11N 37°42' E 009°16'813.5
2015-May-29 18:33N 37°42' E 009°26'1413.5
2015-May-29 17:33N 37°41' E 009°44'1413.4
2015-May-29 16:33N 37°40' E 010°01'1313.0
2015-May-29 15:32N 37°39' E 010°17'1313.0
2015-May-29 14:32N 37°37' E 010°33'1313.2
2015-May-29 13:33N 37°34' E 010°49'1312.9
2015-May-29 12:33N 37°30' E 011°05'1313.2
2015-May-29 11:33N 37°24' E 011°20'1313.4
2015-May-29 10:33N 37°19' E 011°35'1313.3
2015-May-29 09:33N 37°13' E 011°50'1513.6
2015-May-29 08:27N 37°07' E 012°07'1213.1
2015-May-29 07:33N 37°02' E 012°21'1312.9
2015-May-29 06:33N 36°57' E 012°36'4013.4
2015-May-29 03:33N 36°45' E 013°23'1313.2
2015-May-29 02:33N 36°40' E 013°39'1313.1
2015-May-29 01:33N 36°36' E 013°54'1313.4
2015-May-29 00:33N 36°32' E 014°10'1313.4
2015-May-28 23:33N 36°29' E 014°26'1313.0
2015-May-28 22:33N 36°27' E 014°42'44412.3
2015-May-27 10:33N 37°02' E 023°54'3213.8
2015-May-27 08:15N 37°27' E 024°19'1413.7
2015-May-27 07:12N 37°39' E 024°30'10411.4
2015-May-26 22:04N 39°23' E 024°30'711.8
2015-May-26 21:30N 39°28' E 024°24'1212.3
2015-May-26 20:30N 39°37' E 024°14'1212.1
2015-May-26 19:32N 39°42' E 024°00'  

Dump ship's entire track history